Time;durP1;ratioP1;P1;durP2;ratioP2;P2;SDS_P1;SDS_P2;PMS_P1;PMS_P2;Temp;Humidity;BMP_temperature;BMP_pressure;BME280_temperature;BME280_humidity;BME280_pressure;Samples;Min_cycle;Max_cycle;Signal;HPM_P1;HPM_P2
2021/06/27 00:01:40;;;;;;;5.45;3.30;;;23.60;77.70;;;;;;4976738;28;20038;-69
2021/06/27 00:04:06;;;;;;;7.55;3.38;;;23.60;77.10;;;;;;4993730;28;20156;-70
2021/06/27 00:06:31;;;;;;;7.05;3.20;;;23.60;76.60;;;;;;4993970;28;20023;-72
2021/06/27 00:08:57;;;;;;;6.55;3.40;;;23.70;76.30;;;;;;4964531;28;20027;-76
2021/06/27 00:11:26;;;;;;;5.72;3.03;;;23.70;76.10;;;;;;4976749;28;20507;-71
2021/06/27 00:13:52;;;;;;;6.70;3.60;;;23.70;75.90;;;;;;4976288;28;20081;-68
2021/06/27 00:16:19;;;;;;;5.70;3.40;;;23.80;76.20;;;;;;4993895;28;20030;-75
2021/06/27 00:18:45;;;;;;;6.57;3.53;;;23.80;76.10;;;;;;4993955;28;20037;-68
2021/06/27 00:21:13;;;;;;;5.82;3.20;;;23.80;76.00;;;;;;4976554;28;20038;-74
2021/06/27 00:23:46;;;;;;;5.05;3.33;;;23.80;75.80;;;;;;4976157;28;20050;-71
2021/06/27 00:26:14;;;;;;;4.40;3.00;;;23.80;75.50;;;;;;4976327;28;20026;-70
2021/06/27 00:28:41;;;;;;;8.05;3.60;;;23.80;75.20;;;;;;4993789;28;20037;-67
2021/06/27 00:31:07;;;;;;;8.00;3.40;;;23.80;75.20;;;;;;4976888;28;20030;-71
2021/06/27 00:33:32;;;;;;;5.88;3.28;;;23.80;75.20;;;;;;4993518;28;20053;-69
2021/06/27 00:35:58;;;;;;;6.03;3.25;;;23.80;75.00;;;;;;4976126;28;20468;-69
2021/06/27 00:38:24;;;;;;;5.30;3.17;;;23.80;74.90;;;;;;4991897;28;20034;-69
2021/06/27 00:40:51;;;;;;;5.88;3.30;;;23.80;75.00;;;;;;4993932;28;20042;-69
2021/06/27 00:43:17;;;;;;;4.70;3.00;;;23.80;74.90;;;;;;4993592;28;20037;-70
2021/06/27 00:45:43;;;;;;;5.55;3.28;;;23.80;74.90;;;;;;4976275;28;20022;-75
2021/06/27 00:48:09;;;;;;;4.68;3.28;;;23.80;74.80;;;;;;4976151;28;20177;-70
2021/06/27 00:50:42;;;;;;;5.05;3.08;;;23.80;74.70;;;;;;4975991;28;20465;-68
2021/06/27 00:53:09;;;;;;;4.82;3.90;;;23.80;74.60;;;;;;4993827;28;20072;-72
2021/06/27 00:55:35;;;;;;;5.40;3.25;;;23.80;74.80;;;;;;4993699;28;20033;-70
2021/06/27 00:58:02;;;;;;;4.45;3.20;;;23.80;74.80;;;;;;4975927;28;20113;-70
2021/06/27 01:00:42;;;;;;;5.63;3.40;;;23.80;75.30;;;;;;4993461;28;20490;-68
2021/06/27 01:03:08;;;;;;;5.05;3.40;;;23.80;74.70;;;;;;4975635;28;20077;-72
2021/06/27 01:05:38;;;;;;;6.65;3.55;;;23.80;74.60;;;;;;4976314;28;20026;-72
2021/06/27 01:08:05;;;;;;;5.82;3.22;;;23.80;74.60;;;;;;4975526;28;20053;-70
2021/06/27 01:10:32;;;;;;;6.07;3.22;;;23.70;74.50;;;;;;4976134;28;20037;-68
2021/06/27 01:12:58;;;;;;;4.97;3.50;;;23.70;74.60;;;;;;4976073;28;20514;-69
2021/06/27 01:15:24;;;;;;;6.05;3.58;;;23.70;74.80;;;;;;4993385;28;20032;-72
2021/06/27 01:17:53;;;;;;;6.25;3.78;;;23.70;74.80;;;;;;4993252;28;20041;-71
2021/06/27 01:20:31;;;;;;;6.57;3.58;;;23.70;74.70;;;;;;4975528;28;20026;-71
2021/06/27 01:22:59;;;;;;;4.65;3.33;;;23.60;74.60;;;;;;4993677;28;20038;-71
2021/06/27 01:25:36;;;;;;;7.50;3.35;;;23.60;74.70;;;;;;4993589;28;20461;-68
2021/06/27 01:28:04;;;;;;;7.30;3.70;;;23.60;74.70;;;;;;4975766;28;20027;-74
2021/06/27 01:30:30;;;;;;;7.32;3.08;;;23.60;74.70;;;;;;4975648;28;20388;-72
2021/06/27 01:32:59;;;;;;;6.05;3.50;;;23.60;74.40;;;;;;4974310;28;20038;-71
2021/06/27 01:35:26;;;;;;;8.25;3.33;;;23.60;74.30;;;;;;4992932;28;20062;-71
2021/06/27 01:37:54;;;;;;;6.60;3.40;;;23.60;75.00;;;;;;4993428;28;20026;-69
2021/06/27 01:40:26;;;;;;;5.60;3.70;;;23.70;74.40;;;;;;4992775;28;20030;-70
2021/06/27 01:42:53;;;;;;;6.47;3.55;;;23.70;75.10;;;;;;4975941;28;20034;-71
2021/06/27 01:45:24;;;;;;;7.65;3.45;;;23.70;74.50;;;;;;4996306;28;20026;-71
2021/06/27 01:47:56;;;;;;;6.80;3.50;;;23.70;74.40;;;;;;4979259;28;20034;-69
2021/06/27 01:50:22;;;;;;;5.82;3.40;;;23.70;74.50;;;;;;4979147;28;20053;-70
2021/06/27 01:52:48;;;;;;;4.70;3.40;;;23.70;74.40;;;;;;4996498;28;20027;-70
2021/06/27 01:55:14;;;;;;;5.07;3.63;;;23.80;74.50;;;;;;4979341;28;20100;-71
2021/06/27 01:57:39;;;;;;;6.50;3.63;;;23.70;74.50;;;;;;4996726;28;20037;-70
2021/06/27 02:00:06;;;;;;;6.60;3.38;;;23.80;74.50;;;;;;4978772;28;20469;-70
2021/06/27 02:02:32;;;;;;;5.90;4.10;;;23.80;74.30;;;;;;4996138;28;20057;-68
2021/06/27 02:04:58;;;;;;;9.55;6.50;;;23.80;74.10;;;;;;4996452;28;20026;-68
2021/06/27 02:07:24;;;;;;;6.53;4.28;;;23.90;74.10;;;;;;4996916;28;20052;-71
2021/06/27 02:09:49;;;;;;;6.82;3.80;;;23.90;74.00;;;;;;4978530;28;20456;-71
2021/06/27 02:12:15;;;;;;;8.55;4.50;;;23.90;74.70;;;;;;4978663;28;20042;-71
2021/06/27 02:14:41;;;;;;;6.85;3.85;;;23.90;74.10;;;;;;4995929;28;20416;-71
2021/06/27 02:17:09;;;;;;;5.93;3.63;;;23.90;74.10;;;;;;4996060;28;20023;-70
2021/06/27 02:19:35;;;;;;;6.25;3.95;;;23.90;74.10;;;;;;4996389;28;20031;-70
2021/06/27 02:22:03;;;;;;;5.30;3.92;;;23.90;74.10;;;;;;4995888;28;20091;-71
2021/06/27 02:24:29;;;;;;;6.15;3.92;;;24.00;74.10;;;;;;4978495;28;20037;-72
2021/06/27 02:26:55;;;;;;;6.68;5.43;;;24.00;74.00;;;;;;4995902;28;20032;-71
2021/06/27 02:29:21;;;;;;;5.80;3.60;;;24.00;73.90;;;;;;4978503;28;20030;-71
2021/06/27 02:31:50;;;;;;;6.30;3.60;;;24.00;73.80;;;;;;4995268;28;20089;-72
2021/06/27 02:34:18;;;;;;;6.43;3.75;;;24.10;73.90;;;;;;4965743;28;20027;-70
2021/06/27 02:36:44;;;;;;;6.53;3.50;;;24.20;73.90;;;;;;4995848;28;20030;-71
2021/06/27 02:39:10;;;;;;;6.65;3.88;;;24.20;73.80;;;;;;4995549;28;20026;-70
2021/06/27 02:41:36;;;;;;;6.53;4.05;;;24.20;73.50;;;;;;4971792;28;20088;-70
2021/06/27 02:44:03;;;;;;;6.05;3.78;;;24.30;73.50;;;;;;4977636;28;20022;-72
2021/06/27 02:46:29;;;;;;;6.88;3.85;;;24.30;73.40;;;;;;4995493;28;20085;-70
2021/06/27 02:48:55;;;;;;;6.03;3.85;;;24.30;73.10;;;;;;4978240;28;20026;-69
2021/06/27 02:51:21;;;;;;;5.68;3.40;;;24.30;73.10;;;;;;4995972;28;20088;-70
2021/06/27 02:53:46;;;;;;;5.90;3.88;;;24.30;73.00;;;;;;4995727;28;20023;-69
2021/06/27 02:56:13;;;;;;;5.75;3.78;;;24.30;73.10;;;;;;4977200;28;20431;-69
2021/06/27 02:58:44;;;;;;;7.05;3.63;;;24.30;72.90;;;;;;4995410;28;20061;-72
2021/06/27 03:01:11;;;;;;;6.40;3.65;;;24.40;72.80;;;;;;4993850;28;20037;-71
2021/06/27 03:03:42;;;;;;;6.32;3.70;;;24.40;72.60;;;;;;4968969;28;20499;-71
2021/06/27 03:06:09;;;;;;;5.32;3.80;;;24.50;72.20;;;;;;4977593;28;20122;-72
2021/06/27 03:08:35;;;;;;;6.90;4.72;;;24.50;72.10;;;;;;4977598;28;20026;-71
2021/06/27 03:11:01;;;;;;;7.30;3.70;;;24.60;71.90;;;;;;4977771;28;20115;-71
2021/06/27 03:13:28;;;;;;;6.75;3.47;;;24.70;71.90;;;;;;4977970;28;20046;-74
2021/06/27 03:15:53;;;;;;;6.78;4.20;;;24.80;71.80;;;;;;4984700;28;20031;-70
2021/06/27 03:18:19;;;;;;;7.20;3.45;;;25.00;71.50;;;;;;4990862;28;20148;-68
2021/06/27 03:20:45;;;;;;;6.43;4.03;;;25.20;71.00;;;;;;5006801;28;20026;-69
2021/06/27 03:23:12;;;;;;;6.03;3.33;;;25.20;70.70;;;;;;4995111;28;20029;-69
2021/06/27 03:25:39;;;;;;;7.13;3.90;;;25.30;70.40;;;;;;4977359;28;20105;-68
2021/06/27 03:28:05;;;;;;;5.25;3.58;;;25.30;70.30;;;;;;4977893;28;20429;-70
2021/06/27 03:30:31;;;;;;;5.13;3.55;;;25.30;70.00;;;;;;4977453;28;20033;-68
2021/06/27 03:32:58;;;;;;;5.45;3.70;;;25.30;69.60;;;;;;4975778;28;20038;-69
2021/06/27 03:35:24;;;;;;;7.03;3.67;;;25.30;69.80;;;;;;4994874;28;20022;-70
2021/06/27 03:38:07;;;;;;;7.75;3.50;;;25.30;69.80;;;;;;4994806;28;20496;-68
2021/06/27 03:40:33;;;;;;;5.13;3.50;;;25.40;69.60;;;;;;4977032;28;20026;-69
2021/06/27 03:43:01;;;;;;;5.53;3.42;;;25.50;69.70;;;;;;4994555;28;20033;-69
2021/06/27 03:45:30;;;;;;;7.65;3.63;;;25.60;69.10;;;;;;4977151;28;20030;-72
2021/06/27 03:47:56;;;;;;;5.13;3.60;;;25.60;68.60;;;;;;4994831;28;20034;-71
2021/06/27 03:50:22;;;;;;;7.05;3.58;;;25.70;68.50;;;;;;4976803;28;20362;-72
2021/06/27 03:52:48;;;;;;;5.53;3.33;;;25.70;68.20;;;;;;4994154;28;20423;-71
2021/06/27 03:55:16;;;;;;;6.03;3.47;;;25.70;68.00;;;;;;4994313;28;20054;-71
2021/06/27 03:57:41;;;;;;;5.38;3.60;;;25.80;68.20;;;;;;4976743;28;20469;-71
2021/06/27 04:00:09;;;;;;;7.80;3.85;;;26.10;68.40;;;;;;4976799;28;20054;-72
2021/06/27 04:02:34;;;;;;;7.35;3.67;;;26.50;68.00;;;;;;4976465;28;20046;-70
2021/06/27 04:05:00;;;;;;;6.03;3.63;;;27.10;67.40;;;;;;4994310;28;20526;-71
2021/06/27 04:07:26;;;;;;;6.65;3.45;;;27.70;66.60;;;;;;4975584;28;20509;-71
2021/06/27 04:09:52;;;;;;;6.55;3.95;;;28.10;65.50;;;;;;4994131;28;20027;-70
2021/06/27 04:12:17;;;;;;;6.38;3.38;;;28.20;65.10;;;;;;4994040;28;20041;-71
2021/06/27 04:14:43;;;;;;;6.47;3.80;;;28.50;64.90;;;;;;4994312;28;20490;-70
2021/06/27 04:17:11;;;;;;;9.02;3.95;;;28.80;64.40;;;;;;4980481;28;20033;-71
2021/06/27 04:19:37;;;;;;;9.63;4.07;;;29.20;63.60;;;;;;4993985;28;20049;-68
2021/06/27 04:22:03;;;;;;;7.78;3.90;;;29.50;62.60;;;;;;4993346;28;20035;-70
2021/06/27 04:24:29;;;;;;;7.32;4.10;;;29.80;62.30;;;;;;4976434;28;20026;-69
2021/06/27 04:26:54;;;;;;;6.90;3.85;;;30.10;61.60;;;;;;4993697;28;20029;-67
2021/06/27 04:29:20;;;;;;;8.13;3.80;;;30.20;60.70;;;;;;4976414;28;20030;-69
2021/06/27 04:31:46;;;;;;;8.93;3.80;;;30.50;60.40;;;;;;4972431;28;20027;-67
2021/06/27 04:34:12;;;;;;;8.73;5.05;;;30.60;59.70;;;;;;4993769;28;20022;-70
2021/06/27 04:36:37;;;;;;;5.18;3.70;;;30.80;59.20;;;;;;4976042;28;20049;-69
2021/06/27 04:39:06;;;;;;;5.95;3.97;;;30.90;59.00;;;;;;4993687;28;20049;-69
2021/06/27 04:41:34;;;;;;;5.57;3.70;;;31.10;58.20;;;;;;4993754;28;20138;-70
2021/06/27 04:43:59;;;;;;;4.05;3.00;;;31.20;57.90;;;;;;4993624;28;20026;-69
2021/06/27 04:46:25;;;;;;;5.55;3.35;;;31.40;57.10;;;;;;4993565;28;20029;-69
2021/06/27 04:48:51;;;;;;;8.18;3.20;;;31.40;56.70;;;;;;4976198;28;20113;-70
2021/06/27 04:51:17;;;;;;;6.18;3.30;;;31.50;56.00;;;;;;4976377;28;20565;-69
2021/06/27 04:53:43;;;;;;;6.85;3.13;;;31.30;55.70;;;;;;4993951;28;20097;-69
2021/06/27 04:56:09;;;;;;;4.85;3.08;;;31.20;55.80;;;;;;4975876;28;20033;-71
2021/06/27 04:58:35;;;;;;;5.43;3.50;;;31.20;55.70;;;;;;4976474;28;20026;-69
2021/06/27 05:01:01;;;;;;;7.13;3.20;;;30.80;55.40;;;;;;4975157;28;20104;-69
2021/06/27 05:03:27;;;;;;;7.65;3.47;;;30.60;56.10;;;;;;4967541;28;20026;-69
2021/06/27 05:05:53;;;;;;;6.18;3.70;;;30.60;56.50;;;;;;4969295;28;20097;-67
2021/06/27 05:08:18;;;;;;;6.32;3.50;;;30.80;56.80;;;;;;5005941;28;20026;-67
2021/06/27 05:10:44;;;;;;;4.47;3.25;;;30.90;56.50;;;;;;4975671;28;20084;-70
2021/06/27 05:13:10;;;;;;;6.13;3.78;;;31.10;56.30;;;;;;4993520;28;20082;-69
2021/06/27 05:15:35;;;;;;;7.18;3.65;;;31.10;55.80;;;;;;4993553;28;20018;-69
2021/06/27 05:18:02;;;;;;;5.53;3.55;;;30.80;55.70;;;;;;4993050;28;20019;-71
2021/06/27 05:20:28;;;;;;;6.70;3.97;;;30.30;56.20;;;;;;4996291;28;20050;-71
2021/06/27 05:22:55;;;;;;;5.10;3.70;;;30.00;56.80;;;;;;4997466;28;20100;-71
2021/06/27 05:25:20;;;;;;;6.95;3.88;;;29.50;57.50;;;;;;4979445;28;20014;-70
2021/06/27 05:27:46;;;;;;;8.48;5.43;;;29.00;58.10;;;;;;4997150;28;20045;-70
2021/06/27 05:30:12;;;;;;;5.97;4.10;;;28.60;59.10;;;;;;4996883;28;20076;-70
2021/06/27 05:32:38;;;;;;;7.85;4.10;;;28.20;59.80;;;;;;4977720;28;20054;-68
2021/06/27 05:35:05;;;;;;;7.85;5.03;;;27.90;61.00;;;;;;4996783;28;20503;-69
2021/06/27 05:37:31;;;;;;;7.22;4.15;;;27.40;61.50;;;;;;4978947;28;20118;-70
2021/06/27 05:39:57;;;;;;;8.05;4.70;;;27.10;62.60;;;;;;4996791;28;20049;-72
2021/06/27 05:42:23;;;;;;;8.32;4.40;;;26.80;63.30;;;;;;4978853;28;20041;-74
2021/06/27 05:44:49;;;;;;;6.78;4.28;;;26.50;63.90;;;;;;4996674;28;20105;-72
2021/06/27 05:47:15;;;;;;;5.50;4.22;;;26.30;64.80;;;;;;4978883;28;20129;-72
2021/06/27 05:49:41;;;;;;;7.57;5.18;;;26.20;65.50;;;;;;4979008;28;20447;-72
2021/06/27 05:52:07;;;;;;;6.20;4.50;;;26.20;66.00;;;;;;4978988;28;20057;-72
2021/06/27 05:54:32;;;;;;;7.22;4.80;;;26.10;66.50;;;;;;4996293;28;20429;-72
2021/06/27 05:56:58;;;;;;;8.38;5.05;;;26.10;66.90;;;;;;4979068;28;20027;-72
2021/06/27 05:59:24;;;;;;;7.43;5.30;;;26.00;67.20;;;;;;4996263;28;20029;-72
2021/06/27 06:01:50;;;;;;;7.45;5.25;;;25.90;67.60;;;;;;4975813;28;20607;-72
2021/06/27 06:04:15;;;;;;;7.47;5.22;;;25.80;68.10;;;;;;4978490;28;20465;-70
2021/06/27 06:06:41;;;;;;;6.53;4.90;;;25.80;68.70;;;;;;4978919;28;20465;-73
2021/06/27 06:09:07;;;;;;;6.93;5.60;;;25.70;69.00;;;;;;4978935;28;20027;-75
2021/06/27 06:11:32;;;;;;;8.88;5.35;;;25.70;69.40;;;;;;4996446;28;20041;-71
2021/06/27 06:13:58;;;;;;;8.55;5.30;;;25.70;69.70;;;;;;4978683;28;20112;-72
2021/06/27 06:16:24;;;;;;;7.43;5.30;;;25.60;70.00;;;;;;4978810;28;20026;-71
2021/06/27 06:18:50;;;;;;;9.18;5.63;;;25.60;70.60;;;;;;4992152;28;20132;-70
2021/06/27 06:21:16;;;;;;;10.27;7.20;;;25.60;71.00;;;;;;4978918;28;20497;-70
2021/06/27 06:23:42;;;;;;;11.95;6.13;;;25.60;71.10;;;;;;4996732;28;20049;-70
2021/06/27 06:26:09;;;;;;;8.40;5.57;;;25.60;71.40;;;;;;4996306;28;20037;-69
2021/06/27 06:28:35;;;;;;;10.55;5.63;;;25.60;71.70;;;;;;4978683;28;20110;-69
2021/06/27 06:31:01;;;;;;;10.80;5.88;;;25.60;72.60;;;;;;4993978;28;20026;-69
2021/06/27 06:33:27;;;;;;;10.43;6.20;;;25.50;73.30;;;;;;4979051;28;20030;-72
2021/06/27 06:35:53;;;;;;;9.80;6.05;;;25.50;73.00;;;;;;4979019;28;20022;-69
2021/06/27 06:38:19;;;;;;;10.50;6.60;;;25.50;73.00;;;;;;4996062;28;20421;-70
2021/06/27 06:40:44;;;;;;;8.60;5.80;;;25.50;73.40;;;;;;4978441;28;20062;-68
2021/06/27 06:43:10;;;;;;;10.18;6.80;;;25.40;74.00;;;;;;4995799;28;20107;-71
2021/06/27 06:45:36;;;;;;;8.48;6.05;;;25.40;74.70;;;;;;4978008;28;20388;-69
2021/06/27 06:48:03;;;;;;;10.02;6.13;;;25.30;75.00;;;;;;4995447;28;20118;-70
2021/06/27 06:50:29;;;;;;;8.32;6.38;;;25.20;75.10;;;;;;4995297;28;20030;-70
2021/06/27 06:52:55;;;;;;;11.05;6.53;;;25.20;76.00;;;;;;4978242;28;20098;-69
2021/06/27 06:55:21;;;;;;;9.98;6.15;;;25.10;76.20;;;;;;4995484;28;20026;-69
2021/06/27 06:57:49;;;;;;;8.57;6.43;;;25.10;76.40;;;;;;4977793;28;20026;-68
2021/06/27 07:00:16;;;;;;;10.35;6.70;;;25.10;76.80;;;;;;4975726;28;20030;-70
2021/06/27 07:02:42;;;;;;;9.25;6.43;;;25.10;76.90;;;;;;4992238;28;20392;-70
2021/06/27 07:05:08;;;;;;;8.27;6.38;;;25.00;77.20;;;;;;4995454;28;20039;-70
2021/06/27 07:07:35;;;;;;;9.38;6.65;;;25.10;77.80;;;;;;4977858;28;20030;-71
2021/06/27 07:10:04;;;;;;;9.48;6.80;;;25.10;78.10;;;;;;4995139;28;20088;-70
2021/06/27 07:12:30;;;;;;;8.85;6.30;;;25.20;78.10;;;;;;4977627;28;20042;-70
2021/06/27 07:14:56;;;;;;;11.27;6.90;;;25.30;78.20;;;;;;4994810;28;20033;-71
2021/06/27 07:17:21;;;;;;;9.68;6.95;;;25.30;78.20;;;;;;4977697;28;20098;-71
2021/06/27 07:19:47;;;;;;;12.55;7.13;;;25.30;78.00;;;;;;4995381;28;20050;-69
2021/06/27 07:22:13;;;;;;;8.75;6.32;;;25.30;78.10;;;;;;4976889;28;20081;-71
2021/06/27 07:24:39;;;;;;;10.38;7.10;;;25.30;77.90;;;;;;4994892;28;20434;-68
2021/06/27 07:27:06;;;;;;;11.88;6.88;;;25.40;77.60;;;;;;4994669;28;20377;-70
2021/06/27 07:29:32;;;;;;;10.50;6.97;;;25.50;77.50;;;;;;4994709;28;20022;-75
2021/06/27 07:31:58;;;;;;;8.80;6.78;;;25.60;77.50;;;;;;4993000;28;20045;-71
2021/06/27 07:34:23;;;;;;;11.30;6.80;;;25.60;77.50;;;;;;4977197;28;20480;-70
2021/06/27 07:36:49;;;;;;;13.75;6.97;;;25.80;77.60;;;;;;4994688;28;20092;-70
2021/06/27 07:39:15;;;;;;;11.55;7.22;;;25.90;77.60;;;;;;4994536;28;20076;-70
2021/06/27 07:41:41;;;;;;;9.93;6.25;;;26.00;77.70;;;;;;4976871;28;20065;-70
2021/06/27 07:44:07;;;;;;;10.25;6.68;;;26.20;77.00;;;;;;4994344;28;20029;-70
2021/06/27 07:46:33;;;;;;;10.52;7.18;;;26.30;76.70;;;;;;4994440;28;20073;-71
2021/06/27 07:48:59;;;;;;;11.35;6.70;;;26.50;76.50;;;;;;4977104;28;20033;-70
2021/06/27 07:51:25;;;;;;;8.23;6.35;;;26.60;76.60;;;;;;4994428;28;20026;-67
2021/06/27 07:53:51;;;;;;;9.88;6.60;;;26.90;76.10;;;;;;4994536;28;20054;-68
2021/06/27 07:56:16;;;;;;;10.27;6.75;;;27.20;75.50;;;;;;4980775;28;20030;-67
2021/06/27 07:58:42;;;;;;;12.90;7.00;;;27.40;74.70;;;;;;4994244;28;20034;-69
2021/06/27 08:01:08;;;;;;;11.73;6.90;;;27.60;73.70;;;;;;4994073;28;20035;-77
2021/06/27 08:03:33;;;;;;;10.55;6.45;;;27.80;73.30;;;;;;4977266;28;20366;-71
2021/06/27 08:05:59;;;;;;;9.18;6.28;;;28.00;72.80;;;;;;4994448;28;20084;-71
2021/06/27 08:08:25;;;;;;;19.85;14.20;;;28.10;72.00;;;;;;4994418;28;20022;-71
2021/06/27 08:10:51;;;;;;;7.75;6.00;;;28.20;71.40;;;;;;4994526;28;20041;-70
2021/06/27 08:13:16;;;;;;;9.25;5.82;;;28.40;70.60;;;;;;4976280;28;20078;-72
2021/06/27 08:15:42;;;;;;;9.50;6.57;;;28.60;70.10;;;;;;4994275;28;20057;-70
2021/06/27 08:18:08;;;;;;;8.63;6.03;;;28.70;69.40;;;;;;4976487;28;20030;-72
2021/06/27 08:20:34;;;;;;;8.57;6.40;;;28.70;68.90;;;;;;4963427;28;20034;-70
2021/06/27 08:23:00;;;;;;;9.07;6.72;;;28.70;68.90;;;;;;4976337;28;20034;-72
2021/06/27 08:25:26;;;;;;;7.80;5.80;;;28.90;68.70;;;;;;4976246;28;20025;-75
2021/06/27 08:27:52;;;;;;;8.60;6.00;;;29.20;68.50;;;;;;4993844;28;20130;-69
2021/06/27 08:30:19;;;;;;;9.15;6.18;;;29.50;67.70;;;;;;4975760;28;20101;-72
2021/06/27 08:32:47;;;;;;;9.05;6.10;;;29.70;66.80;;;;;;4965870;28;20057;-68
2021/06/27 08:35:17;;;;;;;9.05;5.90;;;29.90;65.90;;;;;;4993630;28;20157;-69
2021/06/27 08:37:44;;;;;;;11.13;5.97;;;30.00;65.30;;;;;;4993816;28;20025;-70
2021/06/27 08:40:12;;;;;;;9.95;6.05;;;30.10;64.80;;;;;;4976079;28;20523;-70
2021/06/27 08:42:38;;;;;;;9.05;5.72;;;30.10;64.30;;;;;;4976218;28;20034;-69
2021/06/27 08:45:06;;;;;;;8.75;6.00;;;30.10;63.90;;;;;;4993862;28;20038;-70
2021/06/27 08:47:34;;;;;;;8.25;5.90;;;30.20;63.60;;;;;;4993597;28;20097;-71
2021/06/27 08:50:01;;;;;;;8.20;5.63;;;30.30;63.30;;;;;;4976455;28;20053;-72
2021/06/27 08:52:26;;;;;;;7.13;5.70;;;30.50;63.70;;;;;;4993395;28;20097;-72
2021/06/27 08:54:52;;;;;;;7.85;5.63;;;30.60;62.80;;;;;;4995881;28;20038;-71
2021/06/27 08:57:19;;;;;;;7.78;5.40;;;30.70;62.70;;;;;;4980180;28;20050;-72
2021/06/27 08:59:46;;;;;;;8.88;5.82;;;31.00;63.00;;;;;;4978458;28;20472;-72
2021/06/27 09:02:12;;;;;;;7.18;5.63;;;31.40;62.60;;;;;;4972897;28;20165;-71
2021/06/27 09:04:40;;;;;;;7.20;5.50;;;31.80;61.80;;;;;;4979985;28;20105;-71
2021/06/27 09:07:28;;;;;;;8.27;5.35;;;32.10;61.30;;;;;;4979899;28;20487;-71
2021/06/27 09:09:56;;;;;;;7.32;5.40;;;32.60;60.30;;;;;;4997547;28;20097;-72
2021/06/27 09:12:22;;;;;;;8.07;5.25;;;33.10;59.90;;;;;;4997388;28;20373;-70
2021/06/27 09:14:47;;;;;;;7.68;5.20;;;33.40;58.90;;;;;;4979665;28;20046;-71
2021/06/27 09:17:19;;;;;;;7.97;5.38;;;33.90;57.90;;;;;;4997361;28;20029;-72
2021/06/27 09:20:02;;;;;;;8.20;5.50;;;34.20;56.90;;;;;;4979796;28;20061;-71
2021/06/27 09:22:30;;;;;;;8.27;5.43;;;34.10;56.40;;;;;;4968062;28;20031;-71
2021/06/27 09:25:25;;;;;;;6.65;5.35;;;34.00;56.40;;;;;;4997420;28;20026;-72
2021/06/27 09:28:13;;;;;;;7.63;5.40;;;34.20;56.00;;;;;;4997412;28;20353;-70
2021/06/27 09:30:47;;;;;;;8.10;5.70;;;34.40;55.90;;;;;;4979978;28;20022;-70
2021/06/27 09:33:14;;;;;;;;;;;34.70;55.20;;;;;;4998417;28;20045;-71
2021/06/27 09:35:50;;;;;;;8.50;5.72;;;35.00;55.80;;;;;;4997408;28;20001;-72
2021/06/27 09:38:25;;;;;;;7.43;5.80;;;34.70;54.10;;;;;;4997754;28;20030;-71
2021/06/27 09:41:03;;;;;;;7.35;5.65;;;34.10;53.90;;;;;;4980430;28;20089;-72
2021/06/27 09:43:31;;;;;;;10.38;5.82;;;33.50;54.70;;;;;;4979595;28;20121;-69
2021/06/27 09:46:15;;;;;;;8.43;5.93;;;33.10;55.90;;;;;;4978935;28;20031;-70
2021/06/27 09:48:57;;;;;;;7.80;5.50;;;33.30;55.80;;;;;;4979125;28;20053;-70
2021/06/27 09:51:26;;;;;;;8.40;5.38;;;33.30;56.30;;;;;;4967365;28;20033;-71
2021/06/27 09:53:52;;;;;;;6.57;5.53;;;33.40;56.60;;;;;;4979102;28;20037;-72
2021/06/27 09:56:21;;;;;;;9.60;5.63;;;33.80;56.20;;;;;;4996450;28;20029;-68
2021/06/27 09:59:07;;;;;;;6.47;5.30;;;34.20;55.50;;;;;;4979553;28;20409;-72
2021/06/27 10:01:34;;;;;;;7.50;6.00;;;34.20;55.30;;;;;;4977717;28;20100;-71
2021/06/27 10:04:02;;;;;;;8.98;6.70;;;34.10;54.60;;;;;;4996581;28;20499;-70
2021/06/27 10:06:31;;;;;;;7.43;5.85;;;33.80;54.40;;;;;;4977493;28;20022;-71
2021/06/27 10:09:11;;;;;;;8.35;6.88;;;33.60;54.80;;;;;;4996830;28;20023;-71
2021/06/27 10:11:38;;;;;;;10.38;6.60;;;33.70;55.70;;;;;;4978702;28;20034;-72
2021/06/27 10:14:10;;;;;;;9.65;7.05;;;33.90;55.30;;;;;;4996141;28;20381;-72
2021/06/27 10:16:37;;;;;;;10.50;6.63;;;33.80;54.60;;;;;;4978971;28;20519;-70
2021/06/27 10:19:04;;;;;;;7.65;5.65;;;33.50;54.20;;;;;;4979289;28;20030;-70
2021/06/27 10:21:30;;;;;;;8.13;6.15;;;33.20;54.60;;;;;;4978624;28;20069;-70
2021/06/27 10:23:57;;;;;;;7.68;6.00;;;33.10;55.30;;;;;;4978585;28;20117;-69
2021/06/27 10:26:25;;;;;;;10.50;6.22;;;33.10;55.30;;;;;;4995972;28;20453;-69
2021/06/27 10:28:52;;;;;;;11.98;6.13;;;33.10;55.40;;;;;;4995901;28;20034;-71
2021/06/27 10:31:22;;;;;;;9.65;5.90;;;33.20;55.70;;;;;;4993703;28;20043;-69
2021/06/27 10:33:49;;;;;;;7.63;6.30;;;33.50;55.50;;;;;;4978537;28;20125;-71
2021/06/27 10:36:30;;;;;;;8.15;5.75;;;33.60;55.00;;;;;;4978109;28;20026;-71
2021/06/27 10:38:57;;;;;;;9.10;6.10;;;33.60;54.90;;;;;;4995631;28;20014;-73
2021/06/27 10:42:00;;;;;;;8.30;5.75;;;33.60;54.70;;;;;;4995910;28;20031;-75
2021/06/27 10:44:28;;;;;;;7.57;6.05;;;33.80;55.20;;;;;;4982918;28;20026;-71
2021/06/27 10:46:58;;;;;;;9.35;5.95;;;34.00;54.50;;;;;;4978260;28;20484;-71
2021/06/27 10:49:33;;;;;;;8.48;5.72;;;33.90;54.20;;;;;;4977838;28;20342;-69
2021/06/27 10:52:05;;;;;;;6.22;4.93;;;34.20;54.50;;;;;;4978281;28;20026;-72
2021/06/27 10:54:38;;;;;;;6.97;5.20;;;34.50;53.70;;;;;;4976613;28;20054;-72
2021/06/27 10:57:10;;;;;;;6.80;5.33;;;34.40;52.80;;;;;;4978334;28;20035;-71
2021/06/27 10:59:39;;;;;;;8.68;5.72;;;34.20;53.50;;;;;;4978051;28;20476;-73
2021/06/27 11:02:18;;;;;;;9.50;5.80;;;34.30;53.40;;;;;;4995125;28;20070;-71
2021/06/27 11:04:48;;;;;;;7.05;5.72;;;34.20;53.80;;;;;;4978857;28;20023;-71
2021/06/27 11:07:38;;;;;;;8.82;5.40;;;33.90;54.10;;;;;;4995976;28;20098;-71
2021/06/27 11:10:21;;;;;;;8.23;5.00;;;34.00;54.20;;;;;;4977447;28;20380;-71
2021/06/27 11:13:02;;;;;;;7.70;5.10;;;33.90;53.70;;;;;;4994988;28;20090;-71
2021/06/27 11:15:37;;;;;;;6.55;5.15;;;33.80;53.40;;;;;;4995185;28;20057;-69
2021/06/27 11:18:09;;;;;;;8.02;5.07;;;33.60;54.00;;;;;;4994660;28;20085;-72
2021/06/27 11:20:54;;;;;;;8.55;5.43;;;33.60;54.80;;;;;;4995054;28;20473;-70
2021/06/27 11:23:38;;;;;;;;;;;33.50;54.90;;;;;;4977771;28;20039;-70
2021/06/27 11:26:04;;;;;;;8.27;5.00;;;33.50;55.00;;;;;;4994999;28;19905;-68
2021/06/27 11:28:30;;;;;;;7.53;5.57;;;33.30;55.00;;;;;;4995217;28;20080;-71
2021/06/27 11:31:26;;;;;;;8.43;5.15;;;33.10;55.60;;;;;;4977348;28;20393;-72
2021/06/27 11:34:25;;;;;;;8.05;5.28;;;33.00;56.20;;;;;;4977342;28;20034;-71
2021/06/27 11:36:53;;;;;;;7.55;5.25;;;33.00;55.70;;;;;;4945759;28;20077;-73
2021/06/27 11:39:49;;;;;;;9.75;5.80;;;33.10;56.80;;;;;;4977042;28;20026;-73
2021/06/27 11:42:27;;;;;;;7.25;5.75;;;33.10;56.40;;;;;;4994087;28;20469;-70
2021/06/27 11:45:08;;;;;;;10.73;5.55;;;33.20;56.10;;;;;;4994522;28;20028;-70
2021/06/27 11:47:39;;;;;;;8.32;5.43;;;33.00;55.70;;;;;;4976960;28;20034;-70
2021/06/27 11:50:18;;;;;;;10.80;6.47;;;32.70;56.00;;;;;;4976790;28;20030;-71
2021/06/27 11:52:50;;;;;;;7.47;5.35;;;32.40;56.80;;;;;;4973829;28;20093;-71
2021/06/27 11:55:16;;;;;;;9.50;5.22;;;32.20;57.30;;;;;;4994504;28;20136;-71
2021/06/27 11:57:43;;;;;;;6.82;5.20;;;31.90;57.30;;;;;;4976822;28;20573;-70
2021/06/27 12:00:11;;;;;;;7.88;5.32;;;31.70;57.70;;;;;;4976531;28;20038;-70
2021/06/27 12:02:37;;;;;;;7.75;5.60;;;31.60;58.50;;;;;;4994098;28;20065;-70
2021/06/27 12:05:08;;;;;;;7.40;5.43;;;31.50;59.00;;;;;;4977071;28;20436;-68
2021/06/27 12:07:34;;;;;;;8.20;5.78;;;31.40;59.20;;;;;;4977057;28;20065;-71
2021/06/27 12:10:01;;;;;;;8.13;5.47;;;31.20;59.10;;;;;;4976552;28;20069;-71
2021/06/27 12:12:40;;;;;;;8.25;6.00;;;31.10;59.50;;;;;;4994030;28;20038;-71
2021/06/27 12:15:27;;;;;;;9.60;6.07;;;31.00;60.00;;;;;;4994172;28;20503;-71
2021/06/27 12:18:02;;;;;;;8.25;5.80;;;30.90;60.60;;;;;;4993678;28;20503;-70
2021/06/27 12:20:30;;;;;;;8.05;5.97;;;30.90;60.50;;;;;;4976649;28;20022;-71
2021/06/27 12:23:00;;;;;;;8.30;6.32;;;30.80;60.80;;;;;;4988404;28;20043;-72
2021/06/27 12:25:28;;;;;;;8.52;6.07;;;30.80;61.00;;;;;;4974400;28;20034;-71
2021/06/27 12:27:56;;;;;;;8.02;6.10;;;30.90;61.20;;;;;;4994130;28;20029;-72
2021/06/27 12:30:43;;;;;;;9.05;5.78;;;30.90;60.90;;;;;;4993334;28;20072;-69
2021/06/27 12:33:11;;;;;;;7.95;5.88;;;30.80;60.90;;;;;;4995206;28;20031;-71
2021/06/27 12:35:40;;;;;;;9.32;5.85;;;30.70;61.20;;;;;;4977832;28;20023;-70
2021/06/27 12:38:06;;;;;;;9.07;5.47;;;30.70;61.50;;;;;;4995313;28;20483;-71
2021/06/27 12:40:33;;;;;;;10.18;6.25;;;30.70;61.70;;;;;;4994439;28;20027;-70
2021/06/27 12:42:59;;;;;;;8.40;5.80;;;30.70;61.60;;;;;;4976279;28;20090;-70
2021/06/27 12:45:26;;;;;;;10.10;5.97;;;30.80;61.60;;;;;;4976300;28;20149;-70
2021/06/27 12:47:53;;;;;;;9.05;5.90;;;30.90;61.30;;;;;;4993676;28;20105;-68
2021/06/27 12:50:38;;;;;;;7.90;5.72;;;31.20;61.20;;;;;;4993265;28;20385;-68
2021/06/27 12:53:07;;;;;;;9.30;6.38;;;31.30;60.80;;;;;;4988737;28;20077;-69